Saint Croix, Virgin Islands
Current Conditions -  °F | °C
As of 9:53 AM on Thursday 27 Nov 2014 (Local Time) from TJNR Reporting Station
Clear Clear  
Wind Chill: 84°   Ceiling: Unl
Heat Index: 88°   Visibility: 10mi
Dew Point: 70°   Wind: 7mph
Humidity: 63%   Direction: 60°ENE
Pressure: 30.04"   Gusts: NA
Location:  17.7°N, 64.8°W
Report Text: TJNR 271353Z AUTO 06006KT 10SM CLR 29/21 A3004 RMK AO2 SLP172 T02890211 $
Loading
Personal Weather Stations






























Interactive Weather Map New forecast layout! Learn more

10-Day Weather Forecast

Advertisements
Track Severe Weather on mobile